Latest Weather Observations for Coolangatta

IDQ60901

Issued at 7:41 pm EST Thursday 21 February 2019 (issued every 10 minutes, with the page automatically refreshed every 10 minutes)

About weather observations | Map of Brisbane area stations | Latest observations for Brisbane area | Other Formats
Station Details ID: 040717 Name: COOLANGATTA Lat: -28.17 Lon: 153.51 Height: 4.0 m
Data from the previous 72 hours. | See also: Recent months at Coolangatta
Date/Time
EST
Temp
°C
App
Temp
°C
Dew
Point
°C
Rel
Hum
%
Delta-T
°C
Wind Press
QNH
hPa
Press
MSL
hPa
Rain since
9am
mm
Dir  Spd
km/h
Gust
km/h
Spd
kts
Gust
kts
21/07:30pm 25.7 25.4 21.1 76 3.0 S 24 35 13 19 1009.0 1008.9 0.8
21/07:00pm 26.0 25.3 21.0 74 3.3 S 26 39 14 21 1008.8 1008.7 0.8
21/06:37pm 26.1 24.8 20.7 72 3.5 S 28 46 15 25 1008.6 1008.5 0.8
21/06:30pm 26.1 25.3 20.9 73 3.4 S 26 39 14 21 1008.7 1008.6 0.8
21/06:00pm 26.4 25.2 20.9 72 3.6 S 28 39 15 21 1008.3 1008.2 0.8
21/05:30pm 26.8 24.3 20.9 70 3.9 SSE 35 50 19 27 1007.9 1007.8 0.8
21/05:13pm 28.1 24.8 20.9 65 4.8 SSE 39 57 21 31 1007.6 1007.5 0.8
21/05:00pm 28.2 24.6 20.2 62 5.3 SSE 39 56 21 30 1007.3 1007.2 0.8
21/04:36pm 28.1 24.1 20.1 62 5.2 SSE 41 59 22 32 1007.3 1007.2 0.8
21/04:30pm 28.6 26.3 20.6 62 5.3 SSE 33 48 18 26 1007.3 1007.2 0.8
21/04:00pm 28.7 25.6 20.4 60 5.5 SSE 37 57 20 31 1007.0 1006.9 0.8
21/03:54pm 29.3 25.8 20.5 59 5.8 SSE 39 57 21 31 1007.0 1006.9 0.8
21/03:30pm 29.5 26.2 20.9 60 5.7 SSE 39 52 21 28 1006.9 1006.8 0.8
21/03:00pm 29.8 25.8 20.1 56 6.4 SSE 41 57 22 31 1006.8 1006.7 0.8
21/02:43pm 30.4 27.7 21.2 58 6.2 SSE 37 56 20 30 1007.0 1006.9 0.8
21/02:30pm 30.2 27.0 20.2 55 6.6 SSE 37 52 20 28 1007.2 1007.1 0.8
21/02:00pm 29.9 26.7 20.2 56 6.4 SSE 37 59 20 32 1007.6 1007.5 0.8
21/01:52pm 30.1 26.7 19.8 54 6.8 SSE 37 59 20 32 1007.6 1007.5 0.8
21/01:30pm 30.0 26.1 20.3 56 6.4 SSE 41 56 22 30 1008.0 1007.9 0.8
21/01:00pm 30.3 26.0 20.8 56 6.3 SSE 44 59 24 32 1008.2 1008.1 0.8
21/12:48pm 29.7 26.5 20.3 57 6.2 SSE 37 56 20 30 1008.3 1008.2 0.8
21/12:30pm 30.2 28.3 21.0 58 6.1 SSE 32 44 17 24 1008.4 1008.3 0.8
21/12:14pm 30.1 28.0 21.7 60 5.7 SSE 35 54 19 29 1008.6 1008.5 0.8
21/12:00pm 29.5 27.4 20.9 60 5.7 SSE 33 50 18 27 1008.6 1008.5 0.8
21/11:37am 30.4 30.0 22.3 62 5.5 SSE 28 46 15 25 1008.8 1008.7 0.8
21/11:30am 29.3 27.4 21.3 62 5.3 SSE 33 50 18 27 1008.8 1008.7 0.8
21/11:16am 28.0 26.3 21.3 67 4.5 SSE 32 52 17 28 1009.0 1008.9 0.8
21/11:00am 28.7 27.7 22.0 67 4.5 SSE 30 46 16 25 1009.2 1009.1 0.8
21/10:51am 28.6 27.2 21.9 67 4.5 SSE 32 50 17 27 1009.2 1009.1 0.8
21/10:30am 28.4 27.4 22.6 71 3.9 SSE 32 43 17 23 1009.3 1009.2 0.8
21/10:00am 25.8 27.7 23.7 88 1.4 SSE 20 32 11 17 1009.4 1009.3 0.8
21/09:34am 24.4 24.6 23.4 94 0.7 SSE 28 46 15 25 1009.3 1009.2 0.8
21/09:30am 24.2 24.2 23.0 93 0.8 SSE 28 43 15 23 1009.3 1009.2 0.8
21/09:00am 25.0 24.9 22.9 88 1.4 SE 28 39 15 21 1009.0 1008.9 0.0
21/08:59am 25.3 25.3 23.0 87 1.6 SE 28 39 15 21 1009.0 1008.9 0.0
21/08:30am 27.3 28.0 22.3 74 3.4 S 22 35 12 19 1008.6 1008.5 0.0
21/08:00am 26.4 27.3 22.0 77 3.0 SSW 20 32 11 17 1008.4 1008.3 0.0
21/07:30am 25.8 27.0 22.1 80 2.5 S 19 30 10 16 1008.3 1008.2 0.0
21/07:00am 25.0 26.3 21.7 82 2.2 S 17 20 9 11 1008.1 1008.0 0.0
21/06:30am 24.6 26.9 22.1 86 1.7 SSW 13 19 7 10 1007.8 1007.7 0.0
21/06:00am 24.3 25.8 22.0 87 1.5 SSW 17 24 9 13 1007.5 1007.4 0.0
21/05:30am 24.1 25.7 22.2 89 1.3 S 17 22 9 12 1007.2 1007.1 0.0
21/05:00am 24.1 26.1 22.2 89 1.3 S 15 20 8 11 1006.9 1006.8 0.0
21/04:30am 24.2 25.9 21.7 86 1.7 SSW 15 20 8 11 1006.6 1006.5 0.0
21/04:00am 24.2 26.1 21.3 84 1.9 S 13 20 7 11 1006.5 1006.4 0.0
21/03:57am 24.4 26.4 21.5 84 1.9 S 13 20 7 11 1006.5 1006.4 0.0
21/03:32am 24.8 26.8 21.5 82 2.2 S 13 19 7 10 1006.5 1006.4 0.0
21/03:30am 24.7 26.6 21.4 82 2.2 S 13 19 7 10 1006.5 1006.4 0.0
21/03:00am 24.7 26.5 21.2 81 2.3 SSW 13 19 7 10 1006.5 1006.4 0.0
21/02:30am 24.8 26.8 21.5 82 2.2 S 13 17 7 9 1006.7 1006.6 0.0
21/02:00am 24.7 27.3 21.2 81 2.3 S 9 13 5 7 1006.7 1006.6 0.0
21/01:30am 25.2 27.1 21.3 79 2.6 SE 13 19 7 10 1006.9 1006.8 0.0
21/01:00am 25.1 26.9 21.2 79 2.6 SSW 13 20 7 11 1007.8 1007.7 0.0
21/12:30am 25.2 27.3 21.7 81 2.3 S 13 20 7 11 1008.2 1008.1 0.0
21/12:00am 25.1 26.5 21.8 82 2.2 S 17 26 9 14 1008.7 1008.6 0.0
 
Date/Time
EST
Temp
°C
App
Temp
°C
Dew
Point
°C
Rel
Hum
%
Delta-T
°C
Wind Press
QNH
hPa
Press
MSL
hPa
Rain since
9am
mm
Dir  Spd
km/h
Gust
km/h
Spd
kts
Gust
kts
20/11:30pm 25.2 26.6 21.9 82 2.2 SSW 17 28 9 15 1009.1 1009.0 0.0
20/11:00pm 25.4 26.6 22.1 82 2.2 SSW 19 26 10 14 1009.4 1009.3 0.0
20/10:30pm 25.5 27.2 22.4 83 2.1 S 17 20 9 11 1009.1 1009.0 0.0
20/10:00pm 25.1 27.6 22.4 85 1.8 S 13 17 7 9 1008.9 1008.8 0.0
20/09:30pm 25.1 27.5 22.2 84 1.9 S 13 19 7 10 1008.7 1008.6 0.0
20/09:00pm 25.3 28.5 22.4 84 1.9 S 9 13 5 7 1008.5 1008.4 0.0
20/08:30pm 25.3 28.4 22.2 83 2.1 S 9 13 5 7 1008.2 1008.1 0.0
20/08:00pm 25.2 28.7 22.1 83 2.1 S 7 9 4 5 1007.5 1007.4 0.0
20/07:30pm 25.3 27.8 21.8 81 2.3 SSE 11 13 6 7 1007.0 1006.9 0.0
20/07:00pm 25.6 27.7 21.7 79 2.6 SE 13 17 7 9 1006.8 1006.7 0.0
20/06:30pm 26.2 27.8 21.4 75 3.2 SE 15 19 8 10 1006.7 1006.6 0.0
20/06:00pm 26.6 27.8 21.4 73 3.5 SE 17 22 9 12 1006.3 1006.2 0.0
20/05:30pm 27.4 27.8 20.7 67 4.4 SE 19 26 10 14 1006.2 1006.1 0.0
20/05:00pm 28.1 28.8 21.6 68 4.4 SE 20 30 11 16 1006.0 1005.9 0.0
20/04:30pm 27.9 27.0 20.7 65 4.8 SE 26 35 14 19 1005.9 1005.8 0.0
20/04:00pm 28.2 27.3 20.7 63 5.0 SE 26 33 14 18 1006.0 1005.9 0.0
20/03:30pm 28.8 27.4 20.5 61 5.5 SE 28 35 15 19 1006.1 1006.0 0.0
20/03:00pm 28.4 26.4 19.9 60 5.6 SE 30 39 16 21 1006.2 1006.1 0.0
20/02:30pm 30.3 29.5 20.8 56 6.3 SE 26 41 14 22 1006.2 1006.1 0.0
20/02:00pm 30.0 29.3 21.1 59 6.0 SE 26 35 14 19 1006.8 1006.7 0.0
20/01:30pm 30.2 28.5 19.9 54 6.8 ESE 28 35 15 19 1007.1 1007.0 0.0
20/01:00pm 29.7 27.1 19.4 54 6.7 ESE 32 39 17 21 1007.4 1007.3 0.0
20/12:30pm 30.3 28.2 19.0 50 7.3 ESE 28 37 15 20 1007.8 1007.7 0.0
20/12:00pm 30.2 27.6 18.6 49 7.5 ESE 30 35 16 19 1008.0 1007.9 0.0
20/11:30am 30.6 29.0 19.3 51 7.4 SE 26 35 14 19 1008.3 1008.2 0.0
20/11:00am 30.2 28.5 18.0 48 7.8 SE 24 35 13 19 1008.7 1008.6 0.0
20/10:30am 30.1 28.5 19.2 52 7.1 SE 26 37 14 20 1009.1 1009.0 0.0
20/10:00am 29.6 28.4 19.3 54 6.7 SE 24 33 13 18 1009.4 1009.3 0.0
20/09:30am 28.5 29.4 20.0 60 5.6 S 15 20 8 11 1009.4 1009.3 0.0
20/09:00am 27.5 29.4 20.6 66 4.5 SSE 11 19 6 10 1009.4 1009.3 0.0
20/08:30am 26.9 28.1 20.7 69 4.1 SSW 15 20 8 11 1009.3 1009.2 0.0
20/08:00am 27.0 27.8 20.6 68 4.2 S 17 22 9 12 1009.2 1009.1 0.0
20/07:30am 26.3 28.1 21.1 73 3.4 S 13 17 7 9 1008.9 1008.8 0.0
20/07:00am 25.4 27.9 21.7 80 2.5 S 11 19 6 10 1008.8 1008.7 0.0
20/06:30am 23.9 26.6 21.4 86 1.6 SSW 9 13 5 7 1008.6 1008.5 0.0
20/06:00am 22.6 25.7 21.1 91 1.0 SSW 6 7 3 4 1008.4 1008.3 0.0
20/05:30am 22.4 25.2 20.9 91 1.0 S 7 7 4 4 1008.2 1008.1 0.0
20/05:00am 22.7 25.3 21.2 91 1.0 SSW 9 11 5 6 1007.9 1007.8 0.0
20/04:30am 22.3 25.1 20.8 91 1.0 SSW 7 9 4 5 1007.7 1007.6 0.0
20/04:00am 22.4 25.2 20.9 91 1.0 S 7 9 4 5 1007.5 1007.4 0.0
20/03:30am 22.8 25.9 21.1 90 1.1 S 6 9 3 5 1007.3 1007.2 0.0
20/03:00am 22.6 24.9 20.7 89 1.2 S 9 11 5 6 1007.2 1007.1 0.0
20/02:30am 23.2 25.5 21.3 89 1.2 S 11 13 6 7 1007.4 1007.3 0.0
20/02:00am 23.0 25.8 21.6 92 0.9 S 9 13 5 7 1007.2 1007.1 0.0
20/01:30am 22.6 25.8 21.2 92 0.9 SW 6 7 3 4 1007.1 1007.0 0.0
20/01:00am 22.3 25.4 21.1 93 0.8 WSW 6 6 3 3 1007.3 1007.2 0.0
20/12:30am 22.3 25.6 20.8 91 1.0 WSW 4 7 2 4 1007.4 1007.3 0.0
20/12:00am 22.4 25.7 20.7 90 1.1 WNW 4 6 2 3 1007.8 1007.7 0.0
 
Date/Time
EST
Temp
°C
App
Temp
°C
Dew
Point
°C
Rel
Hum
%
Delta-T
°C
Wind Press
QNH
hPa
Press
MSL
hPa
Rain since
9am
mm
Dir  Spd
km/h
Gust
km/h
Spd
kts
Gust
kts
19/11:30pm 22.1 24.7 20.4 90 1.1 WNW 7 9 4 5 1007.8 1007.7 0.0
19/11:00pm 22.5 25.1 20.4 88 1.4 WNW 7 9 4 5 1007.9 1007.8 0.0
19/10:30pm 22.8 25.5 20.7 88 1.4 WNW 7 9 4 5 1007.9 1007.8 0.0
19/10:00pm 23.2 25.8 20.5 85 1.8 NW 7 11 4 6 1008.1 1008.0 0.0
19/09:30pm 24.3 26.6 20.6 80 2.4 NNW 9 11 5 6 1008.1 1008.0 0.0
19/09:00pm 24.6 26.6 20.7 79 2.6 N 11 15 6 8 1008.1 1008.0 0.0
19/08:30pm 24.8 26.7 20.5 77 2.8 N 11 13 6 7 1007.9 1007.8 0.0
19/08:00pm 25.1 27.0 20.6 76 2.9 N 11 13 6 7 1007.6 1007.5 0.0
19/07:30pm 25.0 27.2 20.5 76 2.9 N 9 13 5 7 1007.4 1007.3 0.0
19/07:00pm 25.7 27.1 20.3 72 3.5 N 13 17 7 9 1007.2 1007.1 0.0
19/06:30pm 26.0 27.5 20.6 72 3.5 NNE 13 17 7 9 1006.8 1006.7 0.0
19/06:00pm 26.3 27.8 20.6 71 3.7 NNE 13 17 7 9 1006.5 1006.4 0.0
19/05:30pm 26.8 27.5 20.4 68 4.2 NE 17 24 9 13 1006.2 1006.1 0.0
19/05:00pm 27.2 27.9 20.5 67 4.4 NE 17 20 9 11 1005.9 1005.8 0.0
19/04:30pm 27.6 28.1 20.9 67 4.4 NE 19 24 10 13 1005.8 1005.7 0.0
19/04:00pm 28.3 29.2 20.8 63 5.0 NE 17 20 9 11 1005.7 1005.6 0.0
19/03:30pm 28.3 29.2 20.8 63 5.0 NE 17 22 9 12 1005.7 1005.6 0.0
19/03:00pm 28.9 29.9 21.1 62 5.2 NE 17 22 9 12 1005.8 1005.7 0.0
19/02:30pm 28.5 29.1 21.0 64 5.0 NE 19 24 10 13 1006.0 1005.9 0.0
19/02:00pm 28.7 29.1 21.0 63 5.1 ENE 20 24 11 13 1006.4 1006.3 0.0
19/01:30pm 29.3 29.8 22.0 64 4.9 NE 22 28 12 15 1006.8 1006.7 0.0
19/01:00pm 28.5 28.7 20.5 62 5.3 NE 20 28 11 15 1007.1 1007.0 0.0
19/12:30pm 28.8 29.1 20.8 62 5.3 NE 20 28 11 15 1007.4 1007.3 0.0
19/12:00pm 28.8 28.9 20.3 60 5.6 NE 20 26 11 14 1007.7 1007.6 0.0
19/11:30am 28.4 28.5 20.4 62 5.3 NE 20 24 11 13 1008.1 1008.0 0.0
19/11:00am 28.3 28.6 20.3 62 5.3 NE 19 22 10 12 1008.5 1008.4 0.0
19/10:30am 27.5 27.7 19.3 61 5.3 NNE 17 20 9 11 1008.8 1008.7 0.0
19/10:00am 27.7 28.0 18.7 58 5.8 NNE 15 20 8 11 1009.2 1009.1 0.0
19/09:30am 27.3 27.8 18.3 58 5.7 NNE 13 19 7 10 1009.2 1009.1 0.0
19/09:00am 26.5 27.1 18.6 62 5.0 NNE 13 17 7 9 1009.2 1009.1 0.0
19/08:30am 26.7 28.3 18.3 60 5.3 N 7 13 4 7 1009.3 1009.2 0.0
19/08:00am 25.7 27.5 18.4 64 4.6 NNE 6 9 3 5 1009.2 1009.1 0.0
19/07:30am 24.3 27.6 19.1 73 3.3 CALM 0 0 0 0 1009.1 1009.0 0.0
19/07:00am 22.2 25.8 19.7 86 1.6 CALM 0 4 0 2 1009.0 1008.9 0.0
19/06:30am 20.4 23.7 19.2 93 0.8 CALM 0 6 0 3 1008.8 1008.7 0.0
19/06:00am 19.1 22.0 18.3 95 0.5 CALM 0 0 0 0 1008.8 1008.7 0.0
19/05:30am 18.8 21.7 18.1 96 0.4 CALM 0 6 0 3 1008.7 1008.6 0.0
19/05:00am 18.7 21.1 17.9 95 0.5 SW 2 6 1 3 1008.7 1008.6 0.0
19/04:30am 19.0 20.8 18.2 95 0.5 SW 6 7 3 4 1008.7 1008.6 0.0
19/04:00am 19.1 21.2 18.1 94 0.6 SW 4 9 2 5 1008.7 1008.6 0.0
19/03:30am 19.2 21.6 18.0 93 0.7 SSW 2 6 1 3 1008.8 1008.7 0.0
19/03:00am 19.4 21.1 18.1 92 0.8 SSW 6 7 3 4 1008.9 1008.8 0.0
19/02:30am 19.5 22.1 18.3 93 0.7 SW 2 6 1 3 1009.2 1009.1 0.0
19/02:00am 19.6 21.7 18.1 91 0.9 SW 4 6 2 3 1009.4 1009.3 0.0
19/01:30am 20.2 23.3 18.7 91 0.9 CALM 0 0 0 0 1009.6 1009.5 0.0
19/01:00am 20.4 22.7 18.5 89 1.2 SW 4 7 2 4 1009.8 1009.7 0.0
19/12:30am 20.8 22.9 18.9 89 1.2 SSW 6 7 3 4 1010.2 1010.1 0.0
19/12:00am 21.0 22.0 19.5 91 1.0 WSW 13 15 7 8 1010.6 1010.5 0.0
 
Date/Time
EST
Temp
°C
App
Temp
°C
Dew
Point
°C
Rel
Hum
%
Delta-T
°C
Wind Press
QNH
hPa
Press
MSL
hPa
Rain since
9am
mm
Dir  Spd
km/h
Gust
km/h
Spd
kts
Gust
kts
18/11:30pm 21.0 22.4 19.5 91 1.0 WSW 11 13 6 7 1010.8 1010.7 0.0
18/11:00pm 21.3 23.1 19.6 90 1.1 WSW 9 11 5 6 1011.0 1010.9 0.0
18/10:30pm 21.4 22.8 19.5 89 1.2 WSW 11 13 6 7 1011.2 1011.1 0.0
18/10:00pm 21.9 23.7 19.5 86 1.5 WSW 9 13 5 7 1011.3 1011.2 0.0
18/09:30pm 22.4 24.3 19.8 85 1.7 WSW 9 11 5 6 1011.4 1011.3 0.0
18/09:00pm 22.6 24.7 19.4 82 2.0 WSW 7 11 4 6 1011.4 1011.3 0.0
18/08:30pm 23.4 25.1 18.1 72 3.3 SE 6 11 3 6 1011.3 1011.2 0.0
18/08:00pm 24.6 25.5 18.5 69 3.9 ESE 11 13 6 7 1011.1 1011.0 0.0

Latest Capital City Observations: Canberra | Sydney | Melbourne | Brisbane | Adelaide | Perth | Hobart | Darwin

Other formats

Comma delimited format used in spreadsheet applications
http://www.bom.gov.au/fwo/IDQ60901/IDQ60901.94592.axf

JavaScript Object Notation format (JSON) in row-major order
http://www.bom.gov.au/fwo/IDQ60901/IDQ60901.94592.json

Data quality

Most of these data are generated automatically and are frequently updated. Quality checks on data are not normally performed. It is possible for incorrect values to appear. Refer to information at About Latest Weather Observations and please check the disclaimer before using these data.